createdAt,value
2022-08-10T00:01:31.785Z,15.50
2022-08-10T00:04:01.358Z,15.50
2022-08-10T00:06:28.460Z,15.60
2022-08-10T00:08:55.493Z,15.50
2022-08-10T00:11:22.712Z,15.50
2022-08-10T00:13:50.293Z,15.50
2022-08-10T00:16:18.357Z,15.50
2022-08-10T00:18:45.347Z,15.50
2022-08-10T00:21:12.262Z,15.40
2022-08-10T00:23:39.864Z,15.40
2022-08-10T00:26:12.852Z,15.30
2022-08-10T00:28:40.132Z,15.30
2022-08-10T00:31:07.222Z,15.30
2022-08-10T00:33:34.254Z,15.20
2022-08-10T00:36:01.125Z,15.20
2022-08-10T00:38:28.048Z,15.20
2022-08-10T00:40:54.940Z,15.10
2022-08-10T00:43:23.956Z,15.10
2022-08-10T00:45:58.778Z,15.10
2022-08-10T00:48:29.089Z,15.00
2022-08-10T00:50:57.762Z,15.00
2022-08-10T00:53:26.304Z,14.90
2022-08-10T00:57:12.772Z,14.80
2022-08-10T00:58:41.564Z,14.80
2022-08-10T01:01:08.419Z,14.70
2022-08-10T01:04:40.206Z,14.70
2022-08-10T01:07:04.640Z,14.70
2022-08-10T01:10:09.162Z,14.70
2022-08-10T01:13:00.711Z,14.70
2022-08-10T01:15:29.959Z,14.70
2022-08-10T01:18:04.486Z,14.60
2022-08-10T01:20:55.070Z,14.60
2022-08-10T01:24:00.848Z,14.60
2022-08-10T01:26:49.205Z,14.70
2022-08-10T01:34:57.916Z,14.60
2022-08-10T01:37:32.242Z,14.60
2022-08-10T01:40:02.430Z,14.60
2022-08-10T01:42:37.479Z,14.50
2022-08-10T01:45:09.082Z,14.60
2022-08-10T01:48:01.855Z,14.50
2022-08-10T01:50:53.332Z,14.50
2022-08-10T01:53:40.312Z,14.40
2022-08-10T01:56:12.368Z,14.40
2022-08-10T01:58:40.770Z,14.40
2022-08-10T02:01:11.110Z,14.40
2022-08-10T02:04:04.523Z,14.40
2022-08-10T02:06:37.232Z,14.40
2022-08-10T02:09:07.145Z,14.30
2022-08-10T02:12:06.318Z,14.30
2022-08-10T02:14:32.980Z,14.30
2022-08-10T02:17:06.848Z,14.30
2022-08-10T02:19:36.701Z,14.30
2022-08-10T02:22:35.063Z,14.20
2022-08-10T02:24:56.872Z,14.20
2022-08-10T02:27:26.864Z,14.20
2022-08-10T02:29:55.596Z,14.10
2022-08-10T02:32:36.139Z,14.10
2022-08-10T02:35:08.770Z,14.10
2022-08-10T02:37:51.420Z,14.10
2022-08-10T02:45:12.427Z,14.00
2022-08-10T02:45:22.799Z,14.00
2022-08-10T02:46:26.342Z,14.00
2022-08-10T02:49:04.765Z,13.90
2022-08-10T02:52:06.612Z,13.90
2022-08-10T02:54:39.732Z,13.90
2022-08-10T02:57:16.392Z,13.90
2022-08-10T02:59:51.026Z,13.90
2022-08-10T03:02:42.055Z,13.90
2022-08-10T03:05:12.066Z,13.80
2022-08-10T03:08:05.851Z,13.80
2022-08-10T03:10:39.736Z,13.80
2022-08-10T03:13:11.031Z,13.70
2022-08-10T03:15:40.169Z,13.70
2022-08-10T03:18:09.046Z,13.70
2022-08-10T03:20:40.083Z,13.70
2022-08-10T03:23:14.162Z,13.70
2022-08-10T03:25:53.408Z,13.60
2022-08-10T03:28:29.487Z,13.60
2022-08-10T03:30:59.058Z,13.50
2022-08-10T03:33:29.905Z,13.50
2022-08-10T03:36:42.275Z,13.50
2022-08-10T03:38:48.701Z,13.50
2022-08-10T03:41:18.336Z,13.50
2022-08-10T03:43:50.932Z,13.40
2022-08-10T03:46:21.882Z,13.50
2022-08-10T03:48:53.988Z,13.50
2022-08-10T03:51:22.640Z,13.50
2022-08-10T03:54:02.964Z,13.50
2022-08-10T03:56:37.239Z,13.50
2022-08-10T03:59:05.612Z,13.50
2022-08-10T04:02:43.417Z,13.50
2022-08-10T04:04:24.717Z,13.60
2022-08-10T04:06:57.102Z,13.60
2022-08-10T04:09:29.756Z,13.70
2022-08-10T04:12:15.569Z,13.70
2022-08-10T04:14:51.002Z,13.80
2022-08-10T04:18:00.220Z,13.80
2022-08-10T04:20:18.046Z,13.90
2022-08-10T04:22:51.240Z,13.90
2022-08-10T04:25:19.735Z,14.00
2022-08-10T04:27:47.425Z,14.00
2022-08-10T04:30:15.135Z,14.10
2022-08-10T04:32:43.309Z,14.10
2022-08-10T04:35:12.365Z,14.20
2022-08-10T04:37:47.244Z,14.20
2022-08-10T04:40:28.862Z,14.30
2022-08-10T04:43:02.335Z,14.40
2022-08-10T04:45:49.167Z,14.60
2022-08-10T04:48:41.017Z,14.70
2022-08-10T04:51:04.299Z,14.80
2022-08-10T04:53:31.270Z,14.90
2022-08-10T04:55:58.963Z,15.00
2022-08-10T04:58:26.854Z,15.10
2022-08-10T05:00:53.999Z,15.20
2022-08-10T05:03:21.164Z,15.30
2022-08-10T05:05:48.323Z,15.30
2022-08-10T05:08:18.225Z,15.40
2022-08-10T05:10:45.363Z,15.60
2022-08-10T05:13:14.597Z,15.60
2022-08-10T05:15:43.959Z,15.70
2022-08-10T05:18:12.981Z,15.80
2022-08-10T05:20:39.970Z,15.80
2022-08-10T05:23:07.489Z,15.90
2022-08-10T05:25:38.260Z,16.00
2022-08-10T05:28:06.960Z,16.00
2022-08-10T05:30:34.399Z,16.20
2022-08-10T05:33:04.971Z,16.20
2022-08-10T05:35:55.130Z,16.30
2022-08-10T05:38:25.638Z,16.30
2022-08-10T05:40:53.983Z,16.40
2022-08-10T05:43:22.255Z,16.50
2022-08-10T05:46:18.350Z,16.50
2022-08-10T05:48:59.297Z,16.60
2022-08-10T05:51:29.857Z,16.70
2022-08-10T05:54:01.790Z,16.80
2022-08-10T05:56:53.742Z,16.90
2022-08-10T06:00:29.412Z,17.00
2022-08-10T06:02:41.451Z,17.10
2022-08-10T06:05:11.708Z,17.20
2022-08-10T06:07:41.699Z,17.40
2022-08-10T06:10:12.690Z,17.50
2022-08-10T06:12:54.016Z,17.60
2022-08-10T06:15:51.588Z,17.70
2022-08-10T06:18:16.783Z,17.80
2022-08-10T06:20:44.284Z,17.90
2022-08-10T06:23:12.396Z,18.00
2022-08-10T06:26:12.119Z,18.10
2022-08-10T06:28:30.850Z,18.20
2022-08-10T06:30:58.433Z,18.40
2022-08-10T06:33:26.884Z,18.40
2022-08-10T06:35:56.384Z,18.50
2022-08-10T06:38:25.004Z,18.60
2022-08-10T06:40:56.789Z,18.60
2022-08-10T06:43:25.897Z,18.70
2022-08-10T06:46:06.938Z,18.80
2022-08-10T06:48:46.993Z,18.90
2022-08-10T06:51:18.160Z,19.00
2022-08-10T06:53:54.724Z,19.10
2022-08-10T06:56:36.687Z,19.10
2022-08-10T06:59:22.442Z,19.20
2022-08-10T07:02:05.410Z,19.30
2022-08-10T07:04:59.635Z,19.30
2022-08-10T07:07:29.946Z,19.40
2022-08-10T07:09:58.764Z,19.50
2022-08-10T07:12:26.798Z,19.50
2022-08-10T07:14:55.577Z,19.60
2022-08-10T07:17:24.971Z,19.70
2022-08-10T07:20:02.124Z,19.70
2022-08-10T07:23:27.060Z,19.80
2022-08-10T07:25:25.172Z,19.90
2022-08-10T07:28:00.459Z,20.00
2022-08-10T07:30:36.896Z,20.00
2022-08-10T07:33:05.774Z,20.10
2022-08-10T07:35:43.355Z,20.20
2022-08-10T07:38:27.092Z,20.30
2022-08-10T07:40:54.825Z,20.30
2022-08-10T07:43:27.939Z,20.40
2022-08-10T07:45:57.550Z,20.50
2022-08-10T07:48:32.823Z,20.60
2022-08-10T07:51:02.957Z,20.60
2022-08-10T07:53:38.608Z,20.60
2022-08-10T07:56:26.019Z,20.60
2022-08-10T07:59:00.120Z,20.60
2022-08-10T08:01:31.840Z,20.70
2022-08-10T08:04:11.378Z,20.90
2022-08-10T08:06:42.806Z,20.90
2022-08-10T08:09:11.249Z,21.00
2022-08-10T08:11:42.083Z,21.10
2022-08-10T08:14:11.506Z,21.10
2022-08-10T08:16:45.614Z,21.20
2022-08-10T08:19:37.959Z,21.30
2022-08-10T08:24:08.725Z,21.30
2022-08-10T08:24:52.361Z,21.40
2022-08-10T08:27:21.410Z,21.50
2022-08-10T08:29:49.579Z,21.50
2022-08-10T08:32:19.667Z,21.60
2022-08-10T08:34:48.448Z,21.60
2022-08-10T08:38:32.683Z,21.70
2022-08-10T08:40:13.629Z,21.70
2022-08-10T08:43:00.023Z,21.70
2022-08-10T08:46:00.465Z,21.60
2022-08-10T08:48:55.928Z,21.60
2022-08-10T08:52:16.916Z,21.60
2022-08-10T08:54:41.224Z,21.60
2022-08-10T08:57:50.162Z,21.80
2022-08-10T09:00:43.807Z,21.90
2022-08-10T09:03:43.431Z,22.10
2022-08-10T09:06:39.882Z,22.30
2022-08-10T09:09:12.364Z,22.40
2022-08-10T09:12:07.088Z,22.40
2022-08-10T09:14:59.802Z,22.50
2022-08-10T09:17:43.121Z,22.40
2022-08-10T09:20:41.255Z,22.40
2022-08-10T09:24:04.118Z,22.30
2022-08-10T09:26:52.703Z,22.20
2022-08-10T09:29:33.309Z,22.20
2022-08-10T09:36:15.323Z,22.20
2022-08-10T09:36:22.104Z,22.30
2022-08-10T09:38:49.849Z,22.40
2022-08-10T09:41:29.302Z,22.40
2022-08-10T09:44:09.701Z,22.40
2022-08-10T09:46:48.462Z,22.40
2022-08-10T09:49:54.027Z,22.50
2022-08-10T09:52:38.526Z,22.50
2022-08-10T09:56:17.324Z,22.70
2022-08-10T09:58:47.478Z,22.80
2022-08-10T10:01:57.920Z,22.90
2022-08-10T10:04:26.180Z,23.10
2022-08-10T10:07:06.026Z,23.10
2022-08-10T10:10:07.743Z,22.90
2022-08-10T10:12:55.395Z,22.90
2022-08-10T10:16:03.632Z,22.90
2022-08-10T10:18:49.591Z,23.00
2022-08-10T10:21:55.405Z,23.00
2022-08-10T10:24:35.226Z,23.00
2022-08-10T10:27:17.807Z,23.00
2022-08-10T10:29:59.827Z,23.00
2022-08-10T10:32:45.195Z,23.10
2022-08-10T10:35:19.179Z,23.20
2022-08-10T10:38:01.065Z,23.30
2022-08-10T10:40:42.289Z,23.40
2022-08-10T10:43:26.274Z,23.40
2022-08-10T10:46:05.131Z,23.40
2022-08-10T10:48:53.189Z,23.40
2022-08-10T10:51:37.585Z,23.50
2022-08-10T10:54:07.301Z,23.60
2022-08-10T10:57:10.619Z,23.80
2022-08-10T10:59:55.203Z,23.90
2022-08-10T11:02:40.216Z,23.90
2022-08-10T11:05:19.281Z,23.70
2022-08-10T11:08:01.281Z,23.70
2022-08-10T11:10:41.164Z,23.70
2022-08-10T11:14:24.896Z,23.70
2022-08-10T11:16:43.554Z,23.80
2022-08-10T11:20:01.298Z,23.70
2022-08-10T11:22:20.916Z,23.80
2022-08-10T11:25:27.125Z,23.90
2022-08-10T11:28:20.625Z,24.00
2022-08-10T11:31:01.812Z,24.20
2022-08-10T11:34:46.601Z,24.30
2022-08-10T11:36:53.883Z,24.30
2022-08-10T11:39:51.310Z,24.40
2022-08-10T11:43:03.281Z,24.60
2022-08-10T11:45:35.337Z,24.90
2022-08-10T11:48:07.898Z,25.00
2022-08-10T11:50:48.191Z,24.90
2022-08-10T11:53:28.467Z,24.60
2022-08-10T11:56:11.358Z,24.50
2022-08-10T11:59:16.842Z,24.60
2022-08-10T12:01:47.149Z,25.30
2022-08-10T12:04:16.266Z,26.50
2022-08-10T12:06:55.655Z,27.70
2022-08-10T12:10:09.588Z,28.50
2022-08-10T12:12:13.437Z,29.20
2022-08-10T12:15:15.514Z,29.80
2022-08-10T12:17:53.610Z,30.10
2022-08-10T12:20:37.398Z,30.70
2022-08-10T12:23:19.343Z,31.30
2022-08-10T12:25:58.326Z,31.70
2022-08-10T12:28:50.785Z,31.90
2022-08-10T12:31:25.227Z,32.20
2022-08-10T12:34:03.168Z,33.00
2022-08-10T12:36:48.164Z,33.80
2022-08-10T12:39:52.362Z,34.50
2022-08-10T12:42:37.023Z,35.30
2022-08-10T12:45:37.438Z,35.80
2022-08-10T12:48:08.397Z,36.10
2022-08-10T12:50:52.697Z,36.00
2022-08-10T12:53:44.548Z,35.30
2022-08-10T12:56:19.055Z,34.70
2022-08-10T12:59:00.086Z,34.50
2022-08-10T13:02:06.849Z,34.70
2022-08-10T13:04:29.756Z,34.60
2022-08-10T13:07:00.574Z,34.50
2022-08-10T13:09:29.403Z,34.10
2022-08-10T13:12:39.039Z,33.90
2022-08-10T13:15:03.825Z,33.50
2022-08-10T13:17:52.762Z,33.30
2022-08-10T13:20:34.219Z,33.00
2022-08-10T13:23:10.104Z,32.90
2022-08-10T13:25:39.682Z,33.10
2022-08-10T13:28:37.359Z,34.00
2022-08-10T13:31:05.378Z,34.80
2022-08-10T13:34:39.390Z,35.20
2022-08-10T13:36:29.371Z,35.10
2022-08-10T13:38:58.052Z,34.90
2022-08-10T13:41:46.402Z,34.70
2022-08-10T13:44:20.143Z,34.00
2022-08-10T13:46:51.542Z,32.80
2022-08-10T13:49:20.579Z,31.90
2022-08-10T13:51:57.111Z,31.20
2022-08-10T13:54:28.619Z,30.70
2022-08-10T13:56:56.762Z,30.00
2022-08-10T14:00:37.097Z,29.50
2022-08-10T14:02:31.267Z,28.90
2022-08-10T14:04:58.969Z,28.40
2022-08-10T14:07:27.642Z,27.90
2022-08-10T14:10:07.045Z,27.60
2022-08-10T14:12:41.352Z,27.30
2022-08-10T14:15:16.101Z,27.00
2022-08-10T14:17:45.691Z,26.80
2022-08-10T14:20:20.847Z,26.70
2022-08-10T14:22:50.066Z,26.70
2022-08-10T14:25:17.344Z,26.70
2022-08-10T14:28:02.350Z,27.00
2022-08-10T14:30:33.768Z,27.40
2022-08-10T14:33:04.732Z,28.10
2022-08-10T14:36:18.837Z,28.60
2022-08-10T14:38:32.071Z,28.90
2022-08-10T14:41:02.343Z,29.10
2022-08-10T14:43:41.750Z,29.20
2022-08-10T14:46:12.751Z,29.00
2022-08-10T14:48:47.386Z,28.80
2022-08-10T14:51:18.142Z,28.60
2022-08-10T14:53:54.278Z,28.60
2022-08-10T14:56:34.933Z,28.70
2022-08-10T14:59:07.741Z,29.20
2022-08-10T15:02:01.172Z,29.50
2022-08-10T15:04:30.397Z,30.00
2022-08-10T15:07:12.127Z,30.60
2022-08-10T15:10:00.807Z,31.20
2022-08-10T15:12:38.658Z,31.70
2022-08-10T15:15:15.574Z,32.30
2022-08-10T15:17:52.783Z,32.80
2022-08-10T15:20:24.461Z,32.70
2022-08-10T15:23:30.889Z,32.50
2022-08-10T15:26:10.944Z,32.60
2022-08-10T15:29:22.422Z,32.50
2022-08-10T15:31:34.624Z,32.20
2022-08-10T15:34:28.839Z,31.50
2022-08-10T15:37:40.882Z,30.70
2022-08-10T15:40:21.171Z,29.90
2022-08-10T15:43:05.353Z,29.00
2022-08-10T15:46:00.679Z,28.30
2022-08-10T15:48:32.751Z,27.90
2022-08-10T15:51:10.505Z,27.40
2022-08-10T15:53:50.712Z,27.10
2022-08-10T15:56:28.359Z,26.90
2022-08-10T15:59:08.001Z,26.70
2022-08-10T16:02:04.141Z,26.50
2022-08-10T16:04:32.324Z,26.40
2022-08-10T16:07:02.636Z,26.20
2022-08-10T16:10:26.763Z,26.00
2022-08-10T16:12:44.786Z,26.00
2022-08-10T16:15:28.531Z,25.90
2022-08-10T16:18:04.724Z,25.70
2022-08-10T16:20:47.947Z,25.60
2022-08-10T16:23:26.096Z,25.60
2022-08-10T16:26:15.633Z,25.50
2022-08-10T16:28:55.172Z,25.50
2022-08-10T16:31:26.377Z,25.40
2022-08-10T16:33:56.591Z,25.40
2022-08-10T16:36:40.084Z,25.40
2022-08-10T16:39:08.270Z,25.40
2022-08-10T16:42:04.593Z,25.40
2022-08-10T16:44:51.177Z,25.40
2022-08-10T16:47:27.146Z,25.40
2022-08-10T16:49:58.462Z,25.40
2022-08-10T16:52:29.238Z,25.30
2022-08-10T16:55:17.147Z,25.30
2022-08-10T16:57:53.034Z,25.30
2022-08-10T17:00:22.601Z,25.20
2022-08-10T17:02:52.859Z,25.20
2022-08-10T17:06:03.646Z,25.20
2022-08-10T17:08:17.701Z,25.10
2022-08-10T17:10:44.976Z,24.80
2022-08-10T17:13:15.113Z,24.60
2022-08-10T17:15:56.707Z,24.50
2022-08-10T17:18:27.992Z,24.40
2022-08-10T17:21:01.591Z,24.30
2022-08-10T17:23:33.808Z,24.20
2022-08-10T17:26:07.597Z,24.10
2022-08-10T17:28:38.853Z,24.00
2022-08-10T17:31:23.961Z,23.90
2022-08-10T17:34:11.924Z,23.90
2022-08-10T17:36:41.586Z,23.80
2022-08-10T17:39:12.893Z,23.80
2022-08-10T17:41:42.342Z,23.70
2022-08-10T17:44:10.203Z,23.70
2022-08-10T17:46:39.202Z,23.60
2022-08-10T17:49:09.318Z,23.50
2022-08-10T17:51:38.257Z,23.40
2022-08-10T17:54:09.186Z,23.40
2022-08-10T17:56:38.043Z,23.30
2022-08-10T17:59:16.836Z,23.10
2022-08-10T18:02:01.525Z,23.00
2022-08-10T18:04:41.346Z,22.90
2022-08-10T18:07:11.676Z,22.80
2022-08-10T18:09:47.634Z,22.60
2022-08-10T18:12:18.789Z,22.50
2022-08-10T18:14:50.083Z,22.50
2022-08-10T18:17:38.478Z,22.40
2022-08-10T18:20:08.966Z,22.40
2022-08-10T18:22:47.530Z,22.30
2022-08-10T18:25:30.155Z,22.20
2022-08-10T18:28:03.626Z,22.10
2022-08-10T18:30:36.282Z,22.00
2022-08-10T18:33:04.898Z,21.80
2022-08-10T18:35:34.743Z,21.70
2022-08-10T18:38:04.142Z,21.60
2022-08-10T18:40:35.497Z,21.60
2022-08-10T18:44:05.976Z,21.50
2022-08-10T18:45:57.168Z,21.50
2022-08-10T18:48:33.216Z,21.40
2022-08-10T18:51:05.976Z,21.50
2022-08-10T18:53:35.942Z,21.40
2022-08-10T18:56:22.834Z,21.30
2022-08-10T18:59:03.092Z,21.20
2022-08-10T19:02:00.281Z,21.10
2022-08-10T19:04:49.212Z,21.00
2022-08-10T19:07:27.151Z,20.90
2022-08-10T19:10:36.065Z,20.80
2022-08-10T19:13:40.206Z,20.70
2022-08-10T19:16:42.692Z,20.60
2022-08-10T19:19:48.369Z,20.50
2022-08-10T19:22:17.603Z,20.40
2022-08-10T19:24:57.310Z,20.30
2022-08-10T19:27:42.030Z,20.20
2022-08-10T19:30:14.690Z,20.10
2022-08-10T19:32:44.827Z,20.10
2022-08-10T19:35:25.206Z,20.00
2022-08-10T19:38:04.041Z,19.90
2022-08-10T19:40:46.965Z,19.80
2022-08-10T19:43:59.423Z,19.80
2022-08-10T19:46:25.916Z,19.80
2022-08-10T19:49:06.076Z,19.70
2022-08-10T19:52:10.870Z,19.70
2022-08-10T19:55:01.628Z,19.60
2022-08-10T19:57:36.117Z,19.60
2022-08-10T20:00:18.801Z,19.50
2022-08-10T20:03:08.099Z,19.40
2022-08-10T20:06:13.326Z,19.30
2022-08-10T20:09:30.009Z,19.20
2022-08-10T20:12:06.747Z,19.20
2022-08-10T20:15:03.622Z,19.10
2022-08-10T20:17:51.338Z,19.00
2022-08-10T20:20:40.868Z,18.90
2022-08-10T20:23:23.491Z,18.80
2022-08-10T20:26:14.953Z,18.80
2022-08-10T20:29:06.964Z,18.70
2022-08-10T20:31:42.992Z,18.70
2022-08-10T20:34:22.631Z,18.60
2022-08-10T20:37:12.384Z,18.60
2022-08-10T20:40:08.037Z,18.50
2022-08-10T20:43:05.980Z,18.40
2022-08-10T20:46:08.336Z,18.40
2022-08-10T20:49:02.432Z,18.30
2022-08-10T20:51:58.017Z,18.20
2022-08-10T20:54:33.133Z,18.20
2022-08-10T20:57:55.567Z,18.10
2022-08-10T21:00:12.633Z,18.10
2022-08-10T21:02:53.622Z,18.00
2022-08-10T21:05:28.816Z,18.00
2022-08-10T21:08:19.386Z,17.90
2022-08-10T21:11:04.695Z,17.90
2022-08-10T21:14:05.024Z,17.90
2022-08-10T21:16:47.590Z,17.90
2022-08-10T21:19:53.485Z,17.80
2022-08-10T21:22:29.327Z,17.80
2022-08-10T21:25:15.427Z,17.70
2022-08-10T21:27:46.939Z,17.60
2022-08-10T21:30:28.770Z,17.60
2022-08-10T21:33:07.981Z,17.60
2022-08-10T21:35:56.447Z,17.50
2022-08-10T21:38:52.338Z,17.50
2022-08-10T21:42:06.902Z,17.30
2022-08-10T21:45:58.073Z,17.40
2022-08-10T21:49:02.101Z,17.30
2022-08-10T21:52:08.070Z,17.30
2022-08-10T21:55:21.634Z,17.30
2022-08-10T21:58:09.703Z,17.20
2022-08-10T22:04:04.526Z,17.10
2022-08-10T22:06:54.916Z,17.00
2022-08-10T22:09:47.330Z,16.90
2022-08-10T22:12:36.181Z,16.90
2022-08-10T22:16:03.214Z,16.80
2022-08-10T22:18:45.279Z,16.80
2022-08-10T22:22:30.469Z,16.70
2022-08-10T22:25:33.598Z,16.70
2022-08-10T22:28:18.871Z,16.60
2022-08-10T22:31:32.183Z,16.60
2022-08-10T22:34:33.138Z,16.50
2022-08-10T22:37:36.968Z,16.50
2022-08-10T22:40:25.289Z,16.50
2022-08-10T22:43:14.017Z,16.40
2022-08-10T22:46:25.151Z,16.40
2022-08-10T22:49:01.185Z,16.40
2022-08-10T22:51:35.018Z,16.30
2022-08-10T22:54:43.585Z,16.30
2022-08-10T22:57:34.074Z,16.30
2022-08-10T23:00:31.703Z,16.30
2022-08-10T23:03:22.070Z,16.20
2022-08-10T23:06:00.299Z,16.20
2022-08-10T23:08:48.231Z,16.20
2022-08-10T23:11:28.813Z,16.20
2022-08-10T23:14:09.957Z,16.10
2022-08-10T23:17:06.007Z,16.10
2022-08-10T23:19:40.932Z,16.00
2022-08-10T23:22:09.411Z,15.90
2022-08-10T23:24:51.059Z,15.90
2022-08-10T23:27:37.476Z,15.90
2022-08-10T23:30:17.894Z,15.80
2022-08-10T23:32:52.009Z,15.80
2022-08-10T23:36:30.313Z,15.70
2022-08-10T23:38:12.279Z,15.60
2022-08-10T23:40:45.361Z,15.60
2022-08-10T23:43:21.482Z,15.60
2022-08-10T23:45:57.394Z,15.50
2022-08-10T23:48:29.649Z,15.50
2022-08-10T23:51:01.275Z,15.50
2022-08-10T23:53:36.966Z,15.50
2022-08-10T23:56:08.825Z,15.50
2022-08-10T23:58:40.810Z,15.50
